Hardaway, Alabama
Current Conditions -  °F | °C
As of 11:53 AM on Friday 28 Nov 2014 (Local Time) from KTOI Reporting Station
Clear Clear  
Wind Chill: 51°   Ceiling: Unl
Heat Index: 51°   Visibility: 10mi
Dew Point: 21°   Wind: 6mph
Humidity: 31%   Direction: 40°NE
Pressure: 30.38"   Gusts: NA
Location:  32.29°N, 85.85°W
Report Text: KTOI 281753Z AUTO 04005KT 10SM CLR 11/M06 A3038 RMK AO2 SLP288 T01061061 10111 21028 58021
Loading
Personal Weather Stations






























Interactive Weather Map New forecast layout! Learn more

10-Day Weather Forecast

Advertisements
Track Severe Weather on mobile